sensor_id;sensor_type;location;lat;lon;timestamp;P1;durP1;ratioP1;P2;durP2;ratioP2
29030;SDS011;16122;50.236;11.734;2023-06-26T00:01:19;6.40;;;5.87;;
29030;SDS011;16122;50.236;11.734;2023-06-26T00:03:46;7.43;;;5.97;;
29030;SDS011;16122;50.236;11.734;2023-06-26T00:06:12;6.83;;;6.23;;
29030;SDS011;16122;50.236;11.734;2023-06-26T00:08:38;6.20;;;5.60;;
29030;SDS011;16122;50.236;11.734;2023-06-26T00:11:04;6.20;;;5.60;;
29030;SDS011;16122;50.236;11.734;2023-06-26T00:13:30;6.60;;;5.93;;
29030;SDS011;16122;50.236;11.734;2023-06-26T00:15:56;6.93;;;6.27;;
29030;SDS011;16122;50.236;11.734;2023-06-26T00:18:22;6.07;;;5.50;;
29030;SDS011;16122;50.236;11.734;2023-06-26T00:20:48;5.83;;;5.30;;
29030;SDS011;16122;50.236;11.734;2023-06-26T00:23:16;6.50;;;5.90;;
29030;SDS011;16122;50.236;11.734;2023-06-26T00:25:43;6.20;;;5.63;;
29030;SDS011;16122;50.236;11.734;2023-06-26T00:28:09;6.20;;;5.60;;
29030;SDS011;16122;50.236;11.734;2023-06-26T00:30:36;7.53;;;5.97;;
29030;SDS011;16122;50.236;11.734;2023-06-26T00:33:02;6.57;;;5.93;;
29030;SDS011;16122;50.236;11.734;2023-06-26T00:35:30;6.07;;;5.47;;
29030;SDS011;16122;50.236;11.734;2023-06-26T00:37:56;6.10;;;5.47;;
29030;SDS011;16122;50.236;11.734;2023-06-26T00:40:22;5.77;;;5.10;;
29030;SDS011;16122;50.236;11.734;2023-06-26T00:42:48;6.20;;;5.60;;
29030;SDS011;16122;50.236;11.734;2023-06-26T00:45:15;6.57;;;5.97;;
29030;SDS011;16122;50.236;11.734;2023-06-26T00:47:41;5.97;;;5.47;;
29030;SDS011;16122;50.236;11.734;2023-06-26T00:50:07;6.33;;;5.70;;
29030;SDS011;16122;50.236;11.734;2023-06-26T00:52:33;5.77;;;5.37;;
29030;SDS011;16122;50.236;11.734;2023-06-26T00:54:59;6.60;;;6.00;;
29030;SDS011;16122;50.236;11.734;2023-06-26T00:57:25;5.93;;;5.43;;
29030;SDS011;16122;50.236;11.734;2023-06-26T00:59:52;6.37;;;5.77;;
29030;SDS011;16122;50.236;11.734;2023-06-26T01:02:20;6.17;;;5.57;;
29030;SDS011;16122;50.236;11.734;2023-06-26T01:04:49;6.67;;;6.07;;
29030;SDS011;16122;50.236;11.734;2023-06-26T01:07:16;6.50;;;5.90;;
29030;SDS011;16122;50.236;11.734;2023-06-26T01:09:44;6.43;;;5.77;;
29030;SDS011;16122;50.236;11.734;2023-06-26T01:12:14;5.97;;;5.43;;
29030;SDS011;16122;50.236;11.734;2023-06-26T01:14:40;6.50;;;5.90;;
29030;SDS011;16122;50.236;11.734;2023-06-26T01:17:06;5.87;;;5.27;;
29030;SDS011;16122;50.236;11.734;2023-06-26T01:19:37;6.77;;;5.33;;
29030;SDS011;16122;50.236;11.734;2023-06-26T01:24:39;6.40;;;5.80;;
29030;SDS011;16122;50.236;11.734;2023-06-26T01:27:10;7.10;;;6.40;;
29030;SDS011;16122;50.236;11.734;2023-06-26T01:29:37;6.50;;;5.90;;
29030;SDS011;16122;50.236;11.734;2023-06-26T01:32:06;6.67;;;5.90;;
29030;SDS011;16122;50.236;11.734;2023-06-26T01:34:33;6.67;;;6.10;;
29030;SDS011;16122;50.236;11.734;2023-06-26T01:36:59;6.27;;;5.67;;
29030;SDS011;16122;50.236;11.734;2023-06-26T01:39:25;6.47;;;5.97;;
29030;SDS011;16122;50.236;11.734;2023-06-26T01:41:50;7.10;;;5.80;;
29030;SDS011;16122;50.236;11.734;2023-06-26T01:47:01;6.20;;;5.60;;
29030;SDS011;16122;50.236;11.734;2023-06-26T01:58:04;6.30;;;5.80;;
29030;SDS011;16122;50.236;11.734;2023-06-26T02:00:30;6.73;;;6.13;;
29030;SDS011;16122;50.236;11.734;2023-06-26T02:02:57;6.63;;;5.93;;
29030;SDS011;16122;50.236;11.734;2023-06-26T02:05:23;6.40;;;5.80;;
29030;SDS011;16122;50.236;11.734;2023-06-26T02:07:49;6.30;;;5.80;;
29030;SDS011;16122;50.236;11.734;2023-06-26T02:10:16;7.43;;;6.73;;
29030;SDS011;16122;50.236;11.734;2023-06-26T02:12:42;6.57;;;5.93;;
29030;SDS011;16122;50.236;11.734;2023-06-26T02:15:08;7.70;;;6.50;;
29030;SDS011;16122;50.236;11.734;2023-06-26T02:17:34;7.03;;;6.33;;
29030;SDS011;16122;50.236;11.734;2023-06-26T02:20:00;7.90;;;7.20;;
29030;SDS011;16122;50.236;11.734;2023-06-26T02:22:26;8.23;;;7.20;;
29030;SDS011;16122;50.236;11.734;2023-06-26T02:24:53;6.93;;;5.70;;
29030;SDS011;16122;50.236;11.734;2023-06-26T02:27:20;7.13;;;6.43;;
29030;SDS011;16122;50.236;11.734;2023-06-26T02:29:45;8.30;;;6.67;;
29030;SDS011;16122;50.236;11.734;2023-06-26T02:32:11;7.70;;;7.00;;
29030;SDS011;16122;50.236;11.734;2023-06-26T02:34:37;6.93;;;6.30;;
29030;SDS011;16122;50.236;11.734;2023-06-26T02:37:03;6.70;;;6.10;;
29030;SDS011;16122;50.236;11.734;2023-06-26T02:39:33;7.00;;;6.00;;
29030;SDS011;16122;50.236;11.734;2023-06-26T02:42:00;6.87;;;6.27;;
29030;SDS011;16122;50.236;11.734;2023-06-26T02:44:25;7.03;;;6.40;;
29030;SDS011;16122;50.236;11.734;2023-06-26T02:46:51;5.50;;;5.00;;
29030;SDS011;16122;50.236;11.734;2023-06-26T02:49:17;6.60;;;6.00;;
29030;SDS011;16122;50.236;11.734;2023-06-26T02:51:44;6.57;;;5.80;;
29030;SDS011;16122;50.236;11.734;2023-06-26T02:54:21;7.00;;;6.40;;
29030;SDS011;16122;50.236;11.734;2023-06-26T02:56:51;7.13;;;6.53;;
29030;SDS011;16122;50.236;11.734;2023-06-26T02:59:23;7.10;;;5.90;;
29030;SDS011;16122;50.236;11.734;2023-06-26T03:01:49;7.20;;;6.50;;
29030;SDS011;16122;50.236;11.734;2023-06-26T03:04:16;8.57;;;7.67;;
29030;SDS011;16122;50.236;11.734;2023-06-26T03:06:43;7.70;;;7.07;;
29030;SDS011;16122;50.236;11.734;2023-06-26T03:09:09;7.07;;;6.37;;
29030;SDS011;16122;50.236;11.734;2023-06-26T03:11:35;6.93;;;6.23;;
29030;SDS011;16122;50.236;11.734;2023-06-26T03:14:01;6.83;;;6.13;;
29030;SDS011;16122;50.236;11.734;2023-06-26T03:16:27;7.23;;;6.63;;
29030;SDS011;16122;50.236;11.734;2023-06-26T03:18:53;6.70;;;6.00;;
29030;SDS011;16122;50.236;11.734;2023-06-26T03:21:19;7.70;;;6.93;;
29030;SDS011;16122;50.236;11.734;2023-06-26T03:23:45;7.60;;;6.80;;
29030;SDS011;16122;50.236;11.734;2023-06-26T03:26:11;6.73;;;5.87;;
29030;SDS011;16122;50.236;11.734;2023-06-26T03:28:39;7.10;;;6.33;;
29030;SDS011;16122;50.236;11.734;2023-06-26T03:31:08;6.37;;;5.77;;
29030;SDS011;16122;50.236;11.734;2023-06-26T03:33:34;7.37;;;6.67;;
29030;SDS011;16122;50.236;11.734;2023-06-26T03:36:01;7.17;;;6.47;;
29030;SDS011;16122;50.236;11.734;2023-06-26T03:38:26;7.07;;;6.37;;
29030;SDS011;16122;50.236;11.734;2023-06-26T03:40:55;6.93;;;6.33;;
29030;SDS011;16122;50.236;11.734;2023-06-26T03:43:21;7.60;;;6.50;;
29030;SDS011;16122;50.236;11.734;2023-06-26T03:46:10;7.50;;;6.80;;
29030;SDS011;16122;50.236;11.734;2023-06-26T03:48:35;7.77;;;7.07;;
29030;SDS011;16122;50.236;11.734;2023-06-26T03:51:02;8.20;;;7.40;;
29030;SDS011;16122;50.236;11.734;2023-06-26T03:53:28;8.00;;;7.30;;
29030;SDS011;16122;50.236;11.734;2023-06-26T03:55:54;8.90;;;7.30;;
29030;SDS011;16122;50.236;11.734;2023-06-26T03:58:22;8.80;;;6.93;;
29030;SDS011;16122;50.236;11.734;2023-06-26T04:00:48;8.30;;;7.60;;
29030;SDS011;16122;50.236;11.734;2023-06-26T04:03:13;8.97;;;7.97;;
29030;SDS011;16122;50.236;11.734;2023-06-26T04:05:40;8.37;;;7.57;;
29030;SDS011;16122;50.236;11.734;2023-06-26T04:08:06;9.67;;;7.10;;
29030;SDS011;16122;50.236;11.734;2023-06-26T04:10:32;8.40;;;7.50;;
29030;SDS011;16122;50.236;11.734;2023-06-26T04:12:58;8.53;;;7.37;;
29030;SDS011;16122;50.236;11.734;2023-06-26T04:15:23;8.90;;;8.00;;
29030;SDS011;16122;50.236;11.734;2023-06-26T04:17:49;7.87;;;7.17;;
29030;SDS011;16122;50.236;11.734;2023-06-26T04:20:15;8.70;;;7.67;;
29030;SDS011;16122;50.236;11.734;2023-06-26T04:22:41;7.40;;;6.80;;
29030;SDS011;16122;50.236;11.734;2023-06-26T04:25:07;8.70;;;7.03;;
29030;SDS011;16122;50.236;11.734;2023-06-26T04:27:33;8.00;;;7.27;;
29030;SDS011;16122;50.236;11.734;2023-06-26T04:29:58;7.50;;;6.83;;
29030;SDS011;16122;50.236;11.734;2023-06-26T04:32:24;9.03;;;7.33;;
29030;SDS011;16122;50.236;11.734;2023-06-26T04:34:50;8.23;;;7.53;;
29030;SDS011;16122;50.236;11.734;2023-06-26T04:37:16;9.10;;;7.53;;
29030;SDS011;16122;50.236;11.734;2023-06-26T04:39:42;7.40;;;6.70;;
29030;SDS011;16122;50.236;11.734;2023-06-26T04:42:08;8.53;;;6.97;;
29030;SDS011;16122;50.236;11.734;2023-06-26T04:44:37;8.10;;;7.10;;
29030;SDS011;16122;50.236;11.734;2023-06-26T04:47:03;8.67;;;7.77;;
29030;SDS011;16122;50.236;11.734;2023-06-26T04:49:29;10.03;;;8.20;;
29030;SDS011;16122;50.236;11.734;2023-06-26T04:51:55;8.43;;;7.60;;
29030;SDS011;16122;50.236;11.734;2023-06-26T04:54:21;8.17;;;7.37;;
29030;SDS011;16122;50.236;11.734;2023-06-26T04:56:48;12.00;;;6.87;;
29030;SDS011;16122;50.236;11.734;2023-06-26T04:59:14;9.50;;;8.10;;
29030;SDS011;16122;50.236;11.734;2023-06-26T05:01:40;9.80;;;7.30;;
29030;SDS011;16122;50.236;11.734;2023-06-26T05:04:06;7.60;;;6.90;;
29030;SDS011;16122;50.236;11.734;2023-06-26T05:06:32;8.00;;;7.20;;
29030;SDS011;16122;50.236;11.734;2023-06-26T05:08:58;8.60;;;7.70;;
29030;SDS011;16122;50.236;11.734;2023-06-26T05:11:24;7.60;;;7.00;;
29030;SDS011;16122;50.236;11.734;2023-06-26T05:13:51;7.63;;;7.03;;
29030;SDS011;16122;50.236;11.734;2023-06-26T05:16:17;7.73;;;7.03;;
29030;SDS011;16122;50.236;11.734;2023-06-26T05:18:43;8.80;;;7.77;;
29030;SDS011;16122;50.236;11.734;2023-06-26T05:21:09;10.33;;;7.87;;
29030;SDS011;16122;50.236;11.734;2023-06-26T05:23:35;8.90;;;7.70;;
29030;SDS011;16122;50.236;11.734;2023-06-26T05:26:01;8.70;;;7.90;;
29030;SDS011;16122;50.236;11.734;2023-06-26T05:28:28;8.37;;;7.60;;
29030;SDS011;16122;50.236;11.734;2023-06-26T05:30:56;8.57;;;7.77;;
29030;SDS011;16122;50.236;11.734;2023-06-26T05:33:23;7.93;;;7.17;;
29030;SDS011;16122;50.236;11.734;2023-06-26T05:35:54;9.27;;;7.80;;
29030;SDS011;16122;50.236;11.734;2023-06-26T05:38:20;8.40;;;7.57;;
29030;SDS011;16122;50.236;11.734;2023-06-26T05:40:46;8.13;;;7.33;;
29030;SDS011;16122;50.236;11.734;2023-06-26T05:43:12;9.43;;;8.17;;
29030;SDS011;16122;50.236;11.734;2023-06-26T05:45:39;8.13;;;7.33;;
29030;SDS011;16122;50.236;11.734;2023-06-26T05:48:06;8.40;;;7.60;;
29030;SDS011;16122;50.236;11.734;2023-06-26T05:50:32;10.30;;;7.00;;
29030;SDS011;16122;50.236;11.734;2023-06-26T05:52:58;8.63;;;7.50;;
29030;SDS011;16122;50.236;11.734;2023-06-26T05:55:26;8.10;;;7.30;;
29030;SDS011;16122;50.236;11.734;2023-06-26T05:57:53;10.43;;;7.63;;
29030;SDS011;16122;50.236;11.734;2023-06-26T06:00:22;9.27;;;7.53;;
29030;SDS011;16122;50.236;11.734;2023-06-26T06:02:48;9.80;;;7.17;;
29030;SDS011;16122;50.236;11.734;2023-06-26T06:05:14;8.00;;;6.63;;
29030;SDS011;16122;50.236;11.734;2023-06-26T06:07:40;7.83;;;7.03;;
29030;SDS011;16122;50.236;11.734;2023-06-26T06:10:06;11.30;;;6.83;;
29030;SDS011;16122;50.236;11.734;2023-06-26T06:12:32;24.70;;;9.27;;
29030;SDS011;16122;50.236;11.734;2023-06-26T06:14:58;9.93;;;7.23;;
29030;SDS011;16122;50.236;11.734;2023-06-26T06:17:24;8.33;;;7.53;;
29030;SDS011;16122;50.236;11.734;2023-06-26T06:19:50;9.27;;;7.73;;
29030;SDS011;16122;50.236;11.734;2023-06-26T06:22:16;7.70;;;6.93;;
29030;SDS011;16122;50.236;11.734;2023-06-26T06:24:42;7.67;;;6.87;;
29030;SDS011;16122;50.236;11.734;2023-06-26T06:27:09;7.30;;;6.60;;
29030;SDS011;16122;50.236;11.734;2023-06-26T06:29:34;8.53;;;7.70;;
29030;SDS011;16122;50.236;11.734;2023-06-26T06:32:00;7.97;;;7.23;;
29030;SDS011;16122;50.236;11.734;2023-06-26T06:34:26;7.80;;;6.93;;
29030;SDS011;16122;50.236;11.734;2023-06-26T06:36:52;8.10;;;7.30;;
29030;SDS011;16122;50.236;11.734;2023-06-26T06:39:18;8.80;;;7.90;;
29030;SDS011;16122;50.236;11.734;2023-06-26T06:41:43;8.80;;;7.90;;
29030;SDS011;16122;50.236;11.734;2023-06-26T06:44:10;8.03;;;7.13;;
29030;SDS011;16122;50.236;11.734;2023-06-26T06:46:36;8.47;;;7.60;;
29030;SDS011;16122;50.236;11.734;2023-06-26T06:49:02;8.23;;;7.30;;
29030;SDS011;16122;50.236;11.734;2023-06-26T06:51:29;8.60;;;7.80;;
29030;SDS011;16122;50.236;11.734;2023-06-26T06:53:55;8.80;;;7.90;;
29030;SDS011;16122;50.236;11.734;2023-06-26T06:56:20;9.10;;;8.20;;
29030;SDS011;16122;50.236;11.734;2023-06-26T06:58:46;8.20;;;6.93;;
29030;SDS011;16122;50.236;11.734;2023-06-26T07:01:12;9.07;;;7.57;;
29030;SDS011;16122;50.236;11.734;2023-06-26T07:03:38;7.50;;;6.80;;
29030;SDS011;16122;50.236;11.734;2023-06-26T07:06:05;9.20;;;7.17;;
29030;SDS011;16122;50.236;11.734;2023-06-26T07:08:30;8.23;;;7.30;;
29030;SDS011;16122;50.236;11.734;2023-06-26T07:10:56;8.83;;;7.93;;
29030;SDS011;16122;50.236;11.734;2023-06-26T07:13:22;8.27;;;7.47;;
29030;SDS011;16122;50.236;11.734;2023-06-26T07:15:48;8.30;;;7.50;;
29030;SDS011;16122;50.236;11.734;2023-06-26T07:18:14;7.70;;;6.70;;
29030;SDS011;16122;50.236;11.734;2023-06-26T07:20:40;9.70;;;7.93;;
29030;SDS011;16122;50.236;11.734;2023-06-26T07:23:07;8.40;;;7.57;;
29030;SDS011;16122;50.236;11.734;2023-06-26T07:25:33;8.10;;;7.10;;
29030;SDS011;16122;50.236;11.734;2023-06-26T07:27:59;9.60;;;7.33;;
29030;SDS011;16122;50.236;11.734;2023-06-26T07:30:25;7.60;;;6.90;;
29030;SDS011;16122;50.236;11.734;2023-06-26T07:32:51;7.33;;;6.60;;
29030;SDS011;16122;50.236;11.734;2023-06-26T07:35:17;8.77;;;7.87;;
29030;SDS011;16122;50.236;11.734;2023-06-26T07:37:42;10.00;;;7.50;;
29030;SDS011;16122;50.236;11.734;2023-06-26T07:40:08;8.10;;;7.13;;
29030;SDS011;16122;50.236;11.734;2023-06-26T07:42:35;7.30;;;6.60;;
29030;SDS011;16122;50.236;11.734;2023-06-26T07:45:01;7.60;;;6.80;;
29030;SDS011;16122;50.236;11.734;2023-06-26T07:47:30;7.90;;;7.10;;
29030;SDS011;16122;50.236;11.734;2023-06-26T07:49:56;8.77;;;7.60;;
29030;SDS011;16122;50.236;11.734;2023-06-26T07:52:21;8.10;;;7.30;;
29030;SDS011;16122;50.236;11.734;2023-06-26T07:54:47;8.87;;;7.97;;
29030;SDS011;16122;50.236;11.734;2023-06-26T07:57:13;8.27;;;7.40;;
29030;SDS011;16122;50.236;11.734;2023-06-26T07:59:39;8.17;;;7.37;;
29030;SDS011;16122;50.236;11.734;2023-06-26T08:02:05;10.23;;;7.53;;
29030;SDS011;16122;50.236;11.734;2023-06-26T08:04:31;7.73;;;7.00;;
29030;SDS011;16122;50.236;11.734;2023-06-26T08:06:59;7.93;;;7.13;;
29030;SDS011;16122;50.236;11.734;2023-06-26T08:09:26;9.13;;;7.00;;
29030;SDS011;16122;50.236;11.734;2023-06-26T08:11:53;8.63;;;7.37;;
29030;SDS011;16122;50.236;11.734;2023-06-26T08:14:20;7.80;;;7.00;;
29030;SDS011;16122;50.236;11.734;2023-06-26T08:16:46;9.20;;;8.30;;
29030;SDS011;16122;50.236;11.734;2023-06-26T08:19:12;10.33;;;8.33;;
29030;SDS011;16122;50.236;11.734;2023-06-26T08:21:43;15.50;;;8.03;;
29030;SDS011;16122;50.236;11.734;2023-06-26T08:24:09;15.60;;;8.73;;
29030;SDS011;16122;50.236;11.734;2023-06-26T08:26:36;10.23;;;8.77;;
29030;SDS011;16122;50.236;11.734;2023-06-26T08:29:02;11.77;;;9.00;;
29030;SDS011;16122;50.236;11.734;2023-06-26T08:31:33;8.87;;;8.00;;
29030;SDS011;16122;50.236;11.734;2023-06-26T08:34:00;9.93;;;8.60;;
29030;SDS011;16122;50.236;11.734;2023-06-26T08:36:26;10.60;;;8.53;;
29030;SDS011;16122;50.236;11.734;2023-06-26T08:38:52;10.03;;;8.90;;
29030;SDS011;16122;50.236;11.734;2023-06-26T08:41:18;9.93;;;8.83;;
29030;SDS011;16122;50.236;11.734;2023-06-26T08:43:44;9.27;;;8.30;;
29030;SDS011;16122;50.236;11.734;2023-06-26T08:46:10;8.43;;;7.57;;
29030;SDS011;16122;50.236;11.734;2023-06-26T08:48:36;11.73;;;8.17;;
29030;SDS011;16122;50.236;11.734;2023-06-26T08:51:05;12.40;;;8.63;;
29030;SDS011;16122;50.236;11.734;2023-06-26T08:53:40;12.70;;;8.17;;
29030;SDS011;16122;50.236;11.734;2023-06-26T08:56:08;9.93;;;8.37;;
29030;SDS011;16122;50.236;11.734;2023-06-26T08:58:36;10.33;;;8.50;;
29030;SDS011;16122;50.236;11.734;2023-06-26T09:01:04;9.67;;;8.50;;
29030;SDS011;16122;50.236;11.734;2023-06-26T09:03:30;7.60;;;6.70;;
29030;SDS011;16122;50.236;11.734;2023-06-26T09:05:57;8.97;;;7.97;;
29030;SDS011;16122;50.236;11.734;2023-06-26T09:08:23;9.40;;;8.40;;
29030;SDS011;16122;50.236;11.734;2023-06-26T09:10:48;8.30;;;7.23;;
29030;SDS011;16122;50.236;11.734;2023-06-26T09:13:14;10.00;;;8.47;;
29030;SDS011;16122;50.236;11.734;2023-06-26T09:15:44;10.30;;;8.50;;
29030;SDS011;16122;50.236;11.734;2023-06-26T09:18:11;9.23;;;8.17;;
29030;SDS011;16122;50.236;11.734;2023-06-26T09:20:38;9.13;;;8.20;;
29030;SDS011;16122;50.236;11.734;2023-06-26T09:23:05;9.37;;;7.70;;
29030;SDS011;16122;50.236;11.734;2023-06-26T09:25:31;9.57;;;8.63;;
29030;SDS011;16122;50.236;11.734;2023-06-26T09:27:57;10.20;;;8.70;;
29030;SDS011;16122;50.236;11.734;2023-06-26T09:30:23;9.63;;;8.20;;
29030;SDS011;16122;50.236;11.734;2023-06-26T09:32:50;8.77;;;7.90;;
29030;SDS011;16122;50.236;11.734;2023-06-26T09:35:16;8.50;;;7.60;;
29030;SDS011;16122;50.236;11.734;2023-06-26T09:37:42;9.03;;;7.90;;
29030;SDS011;16122;50.236;11.734;2023-06-26T09:40:08;9.13;;;7.97;;
29030;SDS011;16122;50.236;11.734;2023-06-26T09:42:35;10.33;;;8.27;;
29030;SDS011;16122;50.236;11.734;2023-06-26T09:45:02;8.27;;;7.47;;
29030;SDS011;16122;50.236;11.734;2023-06-26T09:47:30;11.30;;;8.83;;
29030;SDS011;16122;50.236;11.734;2023-06-26T09:49:57;12.20;;;8.50;;
29030;SDS011;16122;50.236;11.734;2023-06-26T09:52:25;9.37;;;8.47;;
29030;SDS011;16122;50.236;11.734;2023-06-26T09:54:52;9.47;;;7.70;;
29030;SDS011;16122;50.236;11.734;2023-06-26T09:57:35;9.33;;;8.33;;
29030;SDS011;16122;50.236;11.734;2023-06-26T10:00:02;10.73;;;9.03;;
29030;SDS011;16122;50.236;11.734;2023-06-26T10:02:37;9.67;;;8.10;;
29030;SDS011;16122;50.236;11.734;2023-06-26T10:05:03;8.93;;;8.03;;
29030;SDS011;16122;50.236;11.734;2023-06-26T10:07:30;10.33;;;8.90;;
29030;SDS011;16122;50.236;11.734;2023-06-26T10:09:56;9.40;;;8.40;;
29030;SDS011;16122;50.236;11.734;2023-06-26T10:12:29;9.10;;;7.83;;
29030;SDS011;16122;50.236;11.734;2023-06-26T10:14:56;8.73;;;7.80;;
29030;SDS011;16122;50.236;11.734;2023-06-26T10:17:24;9.73;;;7.93;;
29030;SDS011;16122;50.236;11.734;2023-06-26T10:19:54;12.03;;;8.47;;
29030;SDS011;16122;50.236;11.734;2023-06-26T10:22:25;8.57;;;7.70;;
29030;SDS011;16122;50.236;11.734;2023-06-26T10:24:55;11.20;;;8.17;;
29030;SDS011;16122;50.236;11.734;2023-06-26T10:27:24;10.23;;;8.70;;
29030;SDS011;16122;50.236;11.734;2023-06-26T10:29:54;11.47;;;9.53;;
29030;SDS011;16122;50.236;11.734;2023-06-26T10:32:23;11.50;;;9.03;;
29030;SDS011;16122;50.236;11.734;2023-06-26T10:34:51;11.77;;;9.20;;
29030;SDS011;16122;50.236;11.734;2023-06-26T10:37:18;8.63;;;7.73;;
29030;SDS011;16122;50.236;11.734;2023-06-26T10:39:50;11.53;;;8.90;;
29030;SDS011;16122;50.236;11.734;2023-06-26T10:42:20;9.27;;;8.10;;
29030;SDS011;16122;50.236;11.734;2023-06-26T10:45:09;9.57;;;7.63;;
29030;SDS011;16122;50.236;11.734;2023-06-26T10:47:39;9.30;;;8.30;;
29030;SDS011;16122;50.236;11.734;2023-06-26T10:55:42;9.90;;;8.80;;
29030;SDS011;16122;50.236;11.734;2023-06-26T11:03:44;13.87;;;8.67;;
29030;SDS011;16122;50.236;11.734;2023-06-26T11:06:13;9.40;;;7.90;;
29030;SDS011;16122;50.236;11.734;2023-06-26T11:11:14;8.27;;;7.47;;
29030;SDS011;16122;50.236;11.734;2023-06-26T11:13:41;7.60;;;6.80;;
29030;SDS011;16122;50.236;11.734;2023-06-26T11:16:07;8.27;;;7.27;;
29030;SDS011;16122;50.236;11.734;2023-06-26T11:18:33;9.90;;;8.50;;
29030;SDS011;16122;50.236;11.734;2023-06-26T11:21:06;8.97;;;7.70;;
29030;SDS011;16122;50.236;11.734;2023-06-26T11:23:40;8.23;;;7.33;;
29030;SDS011;16122;50.236;11.734;2023-06-26T11:28:47;13.80;;;8.80;;
29030;SDS011;16122;50.236;11.734;2023-06-26T11:31:26;12.40;;;7.70;;
29030;SDS011;16122;50.236;11.734;2023-06-26T11:33:56;9.50;;;8.50;;
29030;SDS011;16122;50.236;11.734;2023-06-26T11:36:24;9.27;;;8.27;;
29030;SDS011;16122;50.236;11.734;2023-06-26T11:39:00;9.93;;;7.53;;
29030;SDS011;16122;50.236;11.734;2023-06-26T11:41:29;9.40;;;8.40;;
29030;SDS011;16122;50.236;11.734;2023-06-26T11:43:55;8.60;;;7.70;;
29030;SDS011;16122;50.236;11.734;2023-06-26T11:46:26;8.10;;;7.20;;
29030;SDS011;16122;50.236;11.734;2023-06-26T11:48:52;8.80;;;7.87;;
29030;SDS011;16122;50.236;11.734;2023-06-26T11:51:19;9.50;;;8.37;;
29030;SDS011;16122;50.236;11.734;2023-06-26T11:53:46;8.27;;;7.40;;
29030;SDS011;16122;50.236;11.734;2023-06-26T11:56:16;7.83;;;7.03;;
29030;SDS011;16122;50.236;11.734;2023-06-26T11:59:00;10.00;;;7.90;;
29030;SDS011;16122;50.236;11.734;2023-06-26T12:01:31;9.73;;;8.20;;
29030;SDS011;16122;50.236;11.734;2023-06-26T12:03:58;7.50;;;6.70;;
29030;SDS011;16122;50.236;11.734;2023-06-26T12:06:26;13.07;;;8.07;;
29030;SDS011;16122;50.236;11.734;2023-06-26T12:08:53;8.60;;;7.70;;
29030;SDS011;16122;50.236;11.734;2023-06-26T12:11:20;9.57;;;8.53;;
29030;SDS011;16122;50.236;11.734;2023-06-26T12:13:48;8.47;;;7.57;;
29030;SDS011;16122;50.236;11.734;2023-06-26T12:16:15;8.80;;;7.90;;
29030;SDS011;16122;50.236;11.734;2023-06-26T12:18:41;9.20;;;8.30;;
29030;SDS011;16122;50.236;11.734;2023-06-26T12:21:07;8.97;;;7.37;;
29030;SDS011;16122;50.236;11.734;2023-06-26T12:23:33;9.80;;;8.27;;
29030;SDS011;16122;50.236;11.734;2023-06-26T12:26:16;8.60;;;7.70;;
29030;SDS011;16122;50.236;11.734;2023-06-26T12:28:44;9.57;;;8.60;;
29030;SDS011;16122;50.236;11.734;2023-06-26T12:31:17;11.50;;;8.43;;
29030;SDS011;16122;50.236;11.734;2023-06-26T12:33:45;9.83;;;8.43;;
29030;SDS011;16122;50.236;11.734;2023-06-26T12:36:14;8.07;;;7.23;;
29030;SDS011;16122;50.236;11.734;2023-06-26T12:38:40;9.87;;;8.40;;
29030;SDS011;16122;50.236;11.734;2023-06-26T12:41:15;9.33;;;7.87;;
29030;SDS011;16122;50.236;11.734;2023-06-26T12:43:41;9.03;;;8.00;;
29030;SDS011;16122;50.236;11.734;2023-06-26T12:46:07;9.07;;;7.60;;
29030;SDS011;16122;50.236;11.734;2023-06-26T12:48:40;10.70;;;7.83;;
29030;SDS011;16122;50.236;11.734;2023-06-26T12:51:11;8.93;;;7.30;;
29030;SDS011;16122;50.236;11.734;2023-06-26T12:53:40;8.60;;;7.70;;
29030;SDS011;16122;50.236;11.734;2023-06-26T12:56:08;10.20;;;7.20;;
29030;SDS011;16122;50.236;11.734;2023-06-26T12:58:35;8.73;;;7.10;;
29030;SDS011;16122;50.236;11.734;2023-06-26T13:01:05;9.07;;;7.03;;
29030;SDS011;16122;50.236;11.734;2023-06-26T13:03:45;9.57;;;7.80;;
29030;SDS011;16122;50.236;11.734;2023-06-26T13:06:11;9.07;;;7.83;;
29030;SDS011;16122;50.236;11.734;2023-06-26T13:08:38;9.37;;;7.40;;
29030;SDS011;16122;50.236;11.734;2023-06-26T13:11:04;12.00;;;7.90;;
29030;SDS011;16122;50.236;11.734;2023-06-26T13:13:29;11.27;;;7.93;;
29030;SDS011;16122;50.236;11.734;2023-06-26T13:15:55;9.73;;;7.53;;
29030;SDS011;16122;50.236;11.734;2023-06-26T13:18:21;10.60;;;7.50;;
29030;SDS011;16122;50.236;11.734;2023-06-26T13:20:47;8.93;;;7.93;;
29030;SDS011;16122;50.236;11.734;2023-06-26T13:23:13;8.07;;;7.20;;
29030;SDS011;16122;50.236;11.734;2023-06-26T13:25:38;8.30;;;7.30;;
29030;SDS011;16122;50.236;11.734;2023-06-26T13:28:04;8.73;;;7.60;;
29030;SDS011;16122;50.236;11.734;2023-06-26T13:30:30;8.53;;;7.57;;
29030;SDS011;16122;50.236;11.734;2023-06-26T13:32:56;10.27;;;7.47;;
29030;SDS011;16122;50.236;11.734;2023-06-26T13:35:22;8.37;;;7.50;;
29030;SDS011;16122;50.236;11.734;2023-06-26T13:37:48;12.30;;;7.47;;
29030;SDS011;16122;50.236;11.734;2023-06-26T13:40:14;10.97;;;8.20;;
29030;SDS011;16122;50.236;11.734;2023-06-26T13:42:40;7.70;;;6.90;;
29030;SDS011;16122;50.236;11.734;2023-06-26T13:45:06;8.13;;;7.33;;
29030;SDS011;16122;50.236;11.734;2023-06-26T13:47:32;8.27;;;7.47;;
29030;SDS011;16122;50.236;11.734;2023-06-26T13:49:59;8.07;;;7.27;;
29030;SDS011;16122;50.236;11.734;2023-06-26T13:52:25;7.90;;;7.10;;
29030;SDS011;16122;50.236;11.734;2023-06-26T13:54:51;8.37;;;7.30;;
29030;SDS011;16122;50.236;11.734;2023-06-26T13:57:17;8.63;;;7.47;;
29030;SDS011;16122;50.236;11.734;2023-06-26T13:59:44;7.67;;;6.90;;
29030;SDS011;16122;50.236;11.734;2023-06-26T14:02:10;10.00;;;7.53;;
29030;SDS011;16122;50.236;11.734;2023-06-26T14:04:36;8.30;;;6.87;;
29030;SDS011;16122;50.236;11.734;2023-06-26T14:07:02;9.50;;;7.63;;
29030;SDS011;16122;50.236;11.734;2023-06-26T14:09:28;7.63;;;6.83;;
29030;SDS011;16122;50.236;11.734;2023-06-26T14:11:54;7.70;;;7.00;;
29030;SDS011;16122;50.236;11.734;2023-06-26T14:14:20;7.33;;;6.50;;
29030;SDS011;16122;50.236;11.734;2023-06-26T14:16:46;7.23;;;6.47;;
29030;SDS011;16122;50.236;11.734;2023-06-26T14:19:14;7.13;;;6.37;;
29030;SDS011;16122;50.236;11.734;2023-06-26T14:21:42;7.50;;;6.70;;
29030;SDS011;16122;50.236;11.734;2023-06-26T14:24:08;7.73;;;6.93;;
29030;SDS011;16122;50.236;11.734;2023-06-26T14:26:34;7.13;;;6.43;;
29030;SDS011;16122;50.236;11.734;2023-06-26T14:29:01;8.50;;;7.17;;
29030;SDS011;16122;50.236;11.734;2023-06-26T14:31:27;7.47;;;6.77;;
29030;SDS011;16122;50.236;11.734;2023-06-26T14:33:53;9.30;;;7.10;;
29030;SDS011;16122;50.236;11.734;2023-06-26T14:36:19;7.70;;;7.00;;
29030;SDS011;16122;50.236;11.734;2023-06-26T14:38:45;9.13;;;8.13;;
29030;SDS011;16122;50.236;11.734;2023-06-26T14:41:11;7.90;;;7.10;;
29030;SDS011;16122;50.236;11.734;2023-06-26T14:43:40;7.80;;;7.03;;
29030;SDS011;16122;50.236;11.734;2023-06-26T14:46:07;7.90;;;6.63;;
29030;SDS011;16122;50.236;11.734;2023-06-26T14:48:33;7.37;;;6.57;;
29030;SDS011;16122;50.236;11.734;2023-06-26T14:50:58;7.13;;;6.43;;
29030;SDS011;16122;50.236;11.734;2023-06-26T14:53:25;7.10;;;6.40;;
29030;SDS011;16122;50.236;11.734;2023-06-26T14:55:51;7.80;;;7.00;;
29030;SDS011;16122;50.236;11.734;2023-06-26T14:58:17;8.27;;;6.70;;
29030;SDS011;16122;50.236;11.734;2023-06-26T15:00:42;6.67;;;6.03;;
29030;SDS011;16122;50.236;11.734;2023-06-26T15:03:09;6.60;;;5.77;;